createdAt,value
2023-01-09T00:00:17.859Z,99366.09
2023-01-09T00:00:49.885Z,99365.31
2023-01-09T00:01:24.764Z,99367.25
2023-01-09T00:01:56.142Z,99361.44
2023-01-09T00:02:27.533Z,99359.50
2023-01-09T00:02:59.020Z,99369.94
2023-01-09T00:03:30.497Z,99364.53
2023-01-09T00:04:02.824Z,99367.25
2023-01-09T00:04:34.721Z,99367.63
2023-01-09T00:05:10.118Z,99357.19
2023-01-09T00:05:41.560Z,99364.13
2023-01-09T00:06:13.672Z,99368.00
2023-01-09T00:06:50.165Z,99363.34
2023-01-09T00:07:21.740Z,99359.50
2023-01-09T00:07:53.269Z,99363.34
2023-01-09T00:08:24.723Z,99368.38
2023-01-09T00:08:56.816Z,99364.53
2023-01-09T00:09:28.414Z,99362.97
2023-01-09T00:09:59.813Z,99360.25
2023-01-09T00:10:31.266Z,99368.38
2023-01-09T00:11:02.819Z,99362.56
2023-01-09T00:11:34.444Z,99364.50
2023-01-09T00:12:05.999Z,99361.03
2023-01-09T00:12:37.615Z,99367.59
2023-01-09T00:13:11.915Z,99366.06
2023-01-09T00:13:43.363Z,99364.13
2023-01-09T00:14:16.477Z,99371.47
2023-01-09T00:14:47.839Z,99365.28
2023-01-09T00:15:19.252Z,99369.91
2023-01-09T00:15:50.647Z,99371.06
2023-01-09T00:16:22.093Z,99365.66
2023-01-09T00:16:56.809Z,99368.38
2023-01-09T00:17:28.340Z,99371.06
2023-01-09T00:17:59.718Z,99361.44
2023-01-09T00:19:20.153Z,99368.78
2023-01-09T00:19:51.544Z,99361.81
2023-01-09T00:20:22.929Z,99362.97
2023-01-09T00:20:54.367Z,99371.47
2023-01-09T00:21:25.800Z,99362.59
2023-01-09T00:21:57.197Z,99366.06
2023-01-09T00:22:28.569Z,99370.69
2023-01-09T00:22:59.961Z,99364.91
2023-01-09T00:23:31.426Z,99362.56
2023-01-09T00:24:03.290Z,99367.97
2023-01-09T00:24:35.254Z,99364.50
2023-01-09T00:25:07.069Z,99372.63
2023-01-09T00:25:38.628Z,99375.72
2023-01-09T00:26:17.766Z,99371.84
2023-01-09T00:26:49.429Z,99373.78
2023-01-09T00:27:20.756Z,99371.06
2023-01-09T00:27:52.071Z,99371.47
2023-01-09T00:28:23.568Z,99371.47
2023-01-09T00:28:55.189Z,99374.94
2023-01-09T00:29:26.684Z,99372.63
2023-01-09T00:29:58.372Z,99378.41
2023-01-09T00:30:30.318Z,99369.13
2023-01-09T00:31:03.990Z,99374.53
2023-01-09T00:31:35.463Z,99369.50
2023-01-09T00:32:10.043Z,99365.25
2023-01-09T00:32:41.387Z,99367.97
2023-01-09T00:33:13.064Z,99370.66
2023-01-09T00:33:50.239Z,99380.72
2023-01-09T00:34:21.799Z,99379.94
2023-01-09T00:34:53.897Z,99379.19
2023-01-09T00:35:27.563Z,99372.59
2023-01-09T00:35:59.022Z,99369.13
2023-01-09T00:36:30.708Z,99381.88
2023-01-09T00:37:20.475Z,99375.31
2023-01-09T00:37:51.921Z,99379.56
2023-01-09T00:38:23.309Z,99380.75
2023-01-09T00:38:54.805Z,99371.06
2023-01-09T00:39:26.261Z,99366.81
2023-01-09T00:39:57.715Z,99372.22
2023-01-09T00:40:47.753Z,99363.31
2023-01-09T00:41:41.822Z,99364.47
2023-01-09T00:42:19.107Z,99376.47
2023-01-09T00:42:56.323Z,99371.81
2023-01-09T00:43:32.753Z,99369.13
2023-01-09T00:44:21.866Z,99369.13
2023-01-09T00:44:58.995Z,99371.41
2023-01-09T00:45:31.294Z,99372.19
2023-01-09T00:46:06.645Z,99370.66
2023-01-09T00:46:42.574Z,99369.09
2023-01-09T00:47:23.051Z,99369.88
2023-01-09T00:47:58.039Z,99375.28
2023-01-09T00:48:29.914Z,99379.94
2023-01-09T00:49:03.299Z,99374.13
2023-01-09T00:49:37.068Z,99369.09
2023-01-09T00:50:16.834Z,99373.72
2023-01-09T00:50:48.265Z,99371.00
2023-01-09T00:51:20.172Z,99368.69
2023-01-09T00:51:54.384Z,99376.81
2023-01-09T00:52:25.769Z,99373.72
2023-01-09T00:53:00.751Z,99373.31
2023-01-09T00:53:32.834Z,99372.16
2023-01-09T00:54:04.973Z,99371.78
2023-01-09T00:54:37.263Z,99377.97
2023-01-09T00:55:09.443Z,99370.63
2023-01-09T00:55:41.343Z,99377.19
2023-01-09T00:56:16.662Z,99374.13
2023-01-09T00:56:49.879Z,99374.13
2023-01-09T00:57:21.465Z,99381.09
2023-01-09T00:57:53.006Z,99373.72
2023-01-09T00:58:24.763Z,99373.72
2023-01-09T00:58:56.362Z,99379.13
2023-01-09T00:59:28.400Z,99374.47
2023-01-09T01:00:00.054Z,99382.59
2023-01-09T01:00:31.946Z,99382.59
2023-01-09T01:01:03.605Z,99376.78
2023-01-09T01:01:35.185Z,99380.66
2023-01-09T01:02:07.018Z,99382.59
2023-01-09T01:02:38.651Z,99379.50
2023-01-09T01:03:10.608Z,99379.50
2023-01-09T01:03:41.976Z,99380.28
2023-01-09T01:04:31.730Z,99374.84
2023-01-09T01:05:22.477Z,99378.34
2023-01-09T01:06:12.539Z,99388.38
2023-01-09T01:07:02.322Z,99382.19
2023-01-09T01:07:39.400Z,99383.34
2023-01-09T01:08:12.766Z,99388.38
2023-01-09T01:08:45.796Z,99381.03
2023-01-09T01:09:17.121Z,99376.78
2023-01-09T01:09:48.491Z,99382.56
2023-01-09T01:10:24.319Z,99383.72
2023-01-09T01:10:55.764Z,99383.72
2023-01-09T01:11:27.193Z,99391.06
2023-01-09T01:11:58.601Z,99393.00
2023-01-09T01:12:30.074Z,99381.78
2023-01-09T01:13:01.468Z,99381.78
2023-01-09T01:13:32.799Z,99383.69
2023-01-09T01:14:04.194Z,99382.16
2023-01-09T01:14:37.460Z,99389.13
2023-01-09T01:15:09.500Z,99393.38
2023-01-09T01:15:43.056Z,99399.16
2023-01-09T01:16:14.608Z,99395.31
2023-01-09T01:16:45.980Z,99389.53
2023-01-09T01:17:17.357Z,99394.94
2023-01-09T01:17:49.028Z,99396.09
2023-01-09T01:18:20.483Z,99399.16
2023-01-09T01:18:52.186Z,99402.28
2023-01-09T01:19:23.565Z,99401.50
2023-01-09T01:19:55.283Z,99396.09
2023-01-09T01:20:26.807Z,99398.41
2023-01-09T01:20:58.639Z,99395.31
2023-01-09T01:21:30.014Z,99392.22
2023-01-09T01:22:01.706Z,99396.09
2023-01-09T01:22:33.261Z,99395.69
2023-01-09T01:23:04.581Z,99395.69
2023-01-09T01:23:37.102Z,99390.28
2023-01-09T01:24:08.518Z,99390.66
2023-01-09T01:24:39.878Z,99389.88
2023-01-09T01:25:12.780Z,99394.50
2023-01-09T01:25:44.164Z,99382.13
2023-01-09T01:27:05.543Z,99386.00
2023-01-09T01:27:36.944Z,99382.88
2023-01-09T01:28:08.716Z,99387.91
2023-01-09T01:28:41.267Z,99391.38
2023-01-09T01:29:12.693Z,99391.75
2023-01-09T01:29:44.207Z,99391.41
2023-01-09T01:30:17.172Z,99390.97
2023-01-09T01:30:48.523Z,99388.28
2023-01-09T01:31:19.914Z,99392.91
2023-01-09T01:31:51.995Z,99388.28
2023-01-09T01:32:24.074Z,99385.94
2023-01-09T01:32:55.403Z,99395.63
2023-01-09T01:33:26.988Z,99390.59
2023-01-09T01:33:58.413Z,99394.84
2023-01-09T01:34:30.365Z,99388.66
2023-01-09T01:35:02.022Z,99393.28
2023-01-09T01:35:33.482Z,99393.28
2023-01-09T01:36:07.579Z,99393.66
2023-01-09T01:36:38.970Z,99393.66
2023-01-09T01:37:10.490Z,99386.72
2023-01-09T01:37:41.937Z,99387.84
2023-01-09T01:38:13.324Z,99390.56
2023-01-09T01:38:46.735Z,99389.00
2023-01-09T01:39:18.058Z,99392.88
2023-01-09T01:39:49.522Z,99391.72
2023-01-09T01:40:21.073Z,99402.91
2023-01-09T01:40:53.903Z,99396.72
2023-01-09T01:41:31.833Z,99408.31
2023-01-09T01:42:04.726Z,99399.84
2023-01-09T01:42:36.402Z,99404.47
2023-01-09T01:43:12.108Z,99407.19
2023-01-09T01:43:54.351Z,99402.16
2023-01-09T01:45:04.221Z,99405.25
2023-01-09T01:45:35.902Z,99407.19
2023-01-09T01:46:07.277Z,99407.56
2023-01-09T01:46:38.666Z,99410.63
2023-01-09T01:47:10.218Z,99413.34
2023-01-09T01:47:56.696Z,99412.16
2023-01-09T01:48:30.588Z,99409.47
2023-01-09T01:49:14.403Z,99405.19
2023-01-09T01:49:47.038Z,99407.13
2023-01-09T01:50:18.378Z,99400.94
2023-01-09T01:51:06.769Z,99413.69
2023-01-09T01:51:46.829Z,99409.44
2023-01-09T01:52:19.434Z,99410.59
2023-01-09T01:53:02.937Z,99404.78
2023-01-09T01:53:40.730Z,99407.47
2023-01-09T01:54:20.929Z,99409.81
2023-01-09T01:54:52.840Z,99415.59
2023-01-09T01:55:24.865Z,99419.84
2023-01-09T01:56:11.645Z,99414.03
2023-01-09T01:56:47.050Z,99417.91
2023-01-09T01:58:12.871Z,99419.06
2023-01-09T01:59:11.536Z,99412.47
2023-01-09T01:59:50.198Z,99411.72
2023-01-09T02:00:27.425Z,99417.50
2023-01-09T02:00:59.052Z,99413.66
2023-01-09T02:01:30.924Z,99409.38
2023-01-09T02:02:03.864Z,99407.84
2023-01-09T02:02:35.393Z,99417.88
2023-01-09T02:03:07.722Z,99409.75
2023-01-09T02:03:40.409Z,99416.31
2023-01-09T02:04:12.513Z,99410.13
2023-01-09T02:04:45.171Z,99411.66
2023-01-09T02:05:16.745Z,99411.25
2023-01-09T02:05:49.205Z,99418.22
2023-01-09T02:06:20.576Z,99412.81
2023-01-09T02:06:53.922Z,99412.41
2023-01-09T02:07:25.657Z,99424.78
2023-01-09T02:07:57.078Z,99419.38
2023-01-09T02:08:28.526Z,99416.28
2023-01-09T02:09:01.738Z,99415.13
2023-01-09T02:09:33.143Z,99415.50
2023-01-09T02:10:04.930Z,99417.78
2023-01-09T02:10:38.883Z,99415.88
2023-01-09T02:11:13.785Z,99419.34
2023-01-09T02:11:46.195Z,99416.66
2023-01-09T02:12:24.918Z,99422.06
2023-01-09T02:12:56.271Z,99418.94
2023-01-09T02:13:28.394Z,99418.56
2023-01-09T02:14:01.382Z,99414.69
2023-01-09T02:14:32.848Z,99418.94
2023-01-09T02:15:09.533Z,99414.69
2023-01-09T02:16:08.443Z,99415.47
2023-01-09T02:17:15.486Z,99423.56
2023-01-09T02:17:46.807Z,99417.41
2023-01-09T02:18:43.907Z,99429.34
2023-01-09T02:19:54.170Z,99431.28
2023-01-09T02:20:49.263Z,99425.88
2023-01-09T02:22:01.776Z,99429.72
2023-01-09T02:22:45.069Z,99425.50
2023-01-09T02:23:40.132Z,99427.44
2023-01-09T02:24:26.476Z,99426.66
2023-01-09T02:25:23.006Z,99424.72
2023-01-09T02:26:12.961Z,99426.66
2023-01-09T02:27:09.261Z,99424.72
2023-01-09T02:28:07.880Z,99428.22
2023-01-09T02:28:54.186Z,99428.22
2023-01-09T02:29:40.824Z,99434.38
2023-01-09T02:30:37.661Z,99432.84
2023-01-09T02:31:30.652Z,99428.22
2023-01-09T02:32:19.035Z,99427.44
2023-01-09T02:32:53.297Z,99428.22
2023-01-09T02:33:38.013Z,99429.34
2023-01-09T02:34:18.669Z,99427.81
2023-01-09T02:35:15.266Z,99424.69
2023-01-09T02:36:12.880Z,99427.03
2023-01-09T02:36:55.246Z,99427.03
2023-01-09T02:37:57.649Z,99419.28
2023-01-09T02:38:59.824Z,99426.63
2023-01-09T02:39:36.728Z,99425.06
2023-01-09T02:40:33.137Z,99425.06
2023-01-09T02:41:12.860Z,99423.53
2023-01-09T02:41:53.369Z,99420.81
2023-01-09T02:42:26.941Z,99422.75
2023-01-09T02:43:00.361Z,99418.88
2023-01-09T02:43:32.796Z,99421.97
2023-01-09T02:44:16.669Z,99417.34
2023-01-09T02:44:48.127Z,99415.00
2023-01-09T02:45:19.483Z,99421.19
2023-01-09T02:45:50.881Z,99418.09
2023-01-09T02:46:22.965Z,99422.34
2023-01-09T02:47:29.269Z,99418.09
2023-01-09T02:48:00.671Z,99419.22
2023-01-09T02:48:32.196Z,99420.38
2023-01-09T02:49:03.926Z,99423.88
2023-01-09T02:49:38.219Z,99420.38
2023-01-09T02:50:14.359Z,99433.13
2023-01-09T02:51:21.735Z,99431.56
2023-01-09T02:51:59.797Z,99421.91
2023-01-09T02:52:51.945Z,99420.34
2023-01-09T02:53:46.346Z,99418.44
2023-01-09T02:54:41.007Z,99427.69
2023-01-09T02:55:34.844Z,99423.44
2023-01-09T02:56:30.878Z,99421.13
2023-01-09T02:57:11.299Z,99424.97
2023-01-09T02:57:45.142Z,99420.34
2023-01-09T02:58:57.989Z,99419.56
2023-01-09T02:59:56.005Z,99426.13
2023-01-09T03:00:52.511Z,99416.88
2023-01-09T03:01:46.310Z,99418.81
2023-01-09T03:02:41.973Z,99416.09
2023-01-09T03:03:45.281Z,99418.03
2023-01-09T03:04:35.788Z,99425.34
2023-01-09T03:05:19.251Z,99424.56
2023-01-09T03:06:20.727Z,99423.06
2023-01-09T03:07:13.287Z,99419.56
2023-01-09T03:07:56.229Z,99425.34
2023-01-09T03:09:38.660Z,99418.75
2023-01-09T03:10:18.801Z,99422.25
2023-01-09T03:10:57.075Z,99407.97
2023-01-09T03:11:36.382Z,99411.81
2023-01-09T03:12:14.376Z,99418.00
2023-01-09T03:12:48.512Z,99405.25
2023-01-09T03:13:23.954Z,99418.38
2023-01-09T03:13:57.608Z,99418.00
2023-01-09T03:14:38.321Z,99418.00
2023-01-09T03:15:13.524Z,99412.19
2023-01-09T03:15:47.149Z,99417.59
2023-01-09T03:16:29.853Z,99423.00
2023-01-09T03:17:06.184Z,99414.47
2023-01-09T03:17:40.839Z,99419.50
2023-01-09T03:18:14.225Z,99415.25
2023-01-09T03:18:49.017Z,99417.19
2023-01-09T03:19:24.119Z,99420.66
2023-01-09T03:19:57.515Z,99417.19
2023-01-09T03:20:31.197Z,99416.03
2023-01-09T03:21:04.676Z,99411.78
2023-01-09T03:21:36.680Z,99413.69
2023-01-09T03:22:08.722Z,99404.78
2023-01-09T03:22:45.475Z,99413.34
2023-01-09T03:23:17.235Z,99417.19
2023-01-09T03:23:52.452Z,99411.00
2023-01-09T03:24:23.936Z,99411.38
2023-01-09T03:24:55.362Z,99406.75
2023-01-09T03:25:29.432Z,99407.13
2023-01-09T03:26:00.804Z,99408.66
2023-01-09T03:26:32.298Z,99415.22
2023-01-09T03:27:03.969Z,99413.28
2023-01-09T03:27:35.393Z,99405.19
2023-01-09T03:28:09.441Z,99408.66
2023-01-09T03:28:41.712Z,99407.91
2023-01-09T03:30:01.761Z,99407.91
2023-01-09T03:30:35.092Z,99406.75
2023-01-09T03:31:06.487Z,99410.22
2023-01-09T03:31:37.982Z,99407.53
2023-01-09T03:32:09.561Z,99404.03
2023-01-09T03:32:40.973Z,99405.97
2023-01-09T03:33:12.304Z,99406.75
2023-01-09T03:33:44.150Z,99410.59
2023-01-09T03:34:15.550Z,99411.38
2023-01-09T03:34:46.900Z,99409.44
2023-01-09T03:35:18.337Z,99402.47
2023-01-09T03:35:49.676Z,99409.81
2023-01-09T03:36:22.071Z,99411.75
2023-01-09T03:36:53.517Z,99408.25
2023-01-09T03:37:24.914Z,99410.97
2023-01-09T03:37:56.386Z,99410.97
2023-01-09T03:38:27.827Z,99410.97
2023-01-09T03:38:59.258Z,99405.56
2023-01-09T03:39:32.082Z,99410.59
2023-01-09T03:40:03.733Z,99410.97
2023-01-09T03:40:35.124Z,99403.22
2023-01-09T03:41:07.194Z,99402.84
2023-01-09T03:41:38.571Z,99402.47
2023-01-09T03:42:09.963Z,99410.94
2023-01-09T03:42:41.434Z,99401.28
2023-01-09T03:43:31.405Z,99408.59
2023-01-09T03:44:02.771Z,99404.38
2023-01-09T03:44:34.152Z,99407.09
2023-01-09T03:45:06.381Z,99412.47
2023-01-09T03:45:38.231Z,99407.09
2023-01-09T03:46:09.675Z,99412.47
2023-01-09T03:46:41.301Z,99410.94
2023-01-09T03:47:12.684Z,99408.59
2023-01-09T03:47:44.149Z,99407.84
2023-01-09T03:48:15.529Z,99410.56
2023-01-09T03:48:47.742Z,99402.06
2023-01-09T03:49:19.277Z,99412.09
2023-01-09T03:49:50.714Z,99404.34
2023-01-09T03:50:22.070Z,99413.22
2023-01-09T03:50:55.290Z,99412.81
2023-01-09T03:51:26.636Z,99409.34
2023-01-09T03:51:58.074Z,99408.94
2023-01-09T03:52:29.429Z,99422.06
2023-01-09T03:53:00.764Z,99417.81
2023-01-09T03:53:32.118Z,99412.00
2023-01-09T03:54:03.670Z,99428.63
2023-01-09T03:54:35.048Z,99424.78
2023-01-09T03:55:06.812Z,99417.81
2023-01-09T03:55:38.184Z,99425.91
2023-01-09T03:56:09.587Z,99425.16
2023-01-09T03:56:40.963Z,99424.75
2023-01-09T03:57:12.507Z,99427.06
2023-01-09T03:57:43.927Z,99424.75
2023-01-09T03:58:16.836Z,99423.97
2023-01-09T03:58:50.118Z,99429.38
2023-01-09T03:59:21.641Z,99428.59
2023-01-09T03:59:53.021Z,99429.72
2023-01-09T04:00:24.670Z,99439.38
2023-01-09T04:01:02.112Z,99425.09
2023-01-09T04:01:33.862Z,99428.56
2023-01-09T04:02:05.552Z,99423.94
2023-01-09T04:02:37.126Z,99429.69
2023-01-09T04:03:09.601Z,99425.06
2023-01-09T04:03:41.208Z,99432.03
2023-01-09T04:04:12.636Z,99430.09
2023-01-09T04:04:44.091Z,99420.44
2023-01-09T04:05:15.457Z,99423.94
2023-01-09T04:05:49.129Z,99428.56
2023-01-09T04:06:20.518Z,99426.63
2023-01-09T04:06:51.975Z,99419.25
2023-01-09T04:07:23.357Z,99417.34
2023-01-09T04:07:54.685Z,99423.88
2023-01-09T04:08:26.125Z,99428.91
2023-01-09T04:08:57.519Z,99425.44
2023-01-09T04:09:29.236Z,99424.66
2023-01-09T04:10:00.595Z,99427.00
2023-01-09T04:10:32.037Z,99424.28
2023-01-09T04:11:03.462Z,99417.72
2023-01-09T04:11:34.857Z,99428.50
2023-01-09T04:12:06.626Z,99423.50
2023-01-09T04:12:38.044Z,99416.94
2023-01-09T04:13:09.471Z,99415.41
2023-01-09T04:13:40.884Z,99423.50
2023-01-09T04:14:12.318Z,99419.25
2023-01-09T04:14:43.641Z,99420.81
2023-01-09T04:15:14.974Z,99421.19
2023-01-09T04:15:46.323Z,99424.66
2023-01-09T04:16:17.828Z,99416.16
2023-01-09T04:16:49.218Z,99423.09
2023-01-09T04:17:20.607Z,99425.03
2023-01-09T04:17:51.965Z,99421.16
2023-01-09T04:18:23.384Z,99421.56
2023-01-09T04:18:54.789Z,99424.63
2023-01-09T04:19:26.229Z,99417.28
2023-01-09T04:19:59.032Z,99422.69
2023-01-09T04:20:30.732Z,99422.28
2023-01-09T04:21:02.191Z,99423.06
2023-01-09T04:21:33.700Z,99424.59
2023-01-09T04:22:05.064Z,99423.44
2023-01-09T04:22:36.774Z,99427.69
2023-01-09T04:23:08.207Z,99430.75
2023-01-09T04:23:39.604Z,99434.25
2023-01-09T04:24:10.937Z,99424.59
2023-01-09T04:24:42.315Z,99428.84
2023-01-09T04:25:13.738Z,99425.72
2023-01-09T04:25:45.775Z,99427.28
2023-01-09T04:26:17.136Z,99425.72
2023-01-09T04:26:48.527Z,99427.66
2023-01-09T04:27:19.982Z,99421.84
2023-01-09T04:27:51.363Z,99423.78
2023-01-09T04:28:22.727Z,99428.03
2023-01-09T04:28:54.155Z,99429.94
2023-01-09T04:29:25.509Z,99424.50
2023-01-09T04:29:56.891Z,99426.44
2023-01-09T04:30:28.214Z,99429.16
2023-01-09T04:30:59.646Z,99425.28
2023-01-09T04:31:31.066Z,99424.50
2023-01-09T04:32:02.517Z,99428.75
2023-01-09T04:32:34.048Z,99425.25
2023-01-09T04:33:05.473Z,99433.34
2023-01-09T04:33:36.909Z,99434.50
2023-01-09T04:34:08.343Z,99433.75
2023-01-09T04:34:39.702Z,99433.34
2023-01-09T04:35:11.188Z,99436.03
2023-01-09T04:35:42.502Z,99431.81
2023-01-09T04:36:14.060Z,99431.41
2023-01-09T04:36:45.429Z,99436.81
2023-01-09T04:37:16.814Z,99432.19
2023-01-09T04:37:48.267Z,99436.03
2023-01-09T04:38:19.969Z,99441.06
2023-01-09T04:38:51.312Z,99440.28
2023-01-09T04:39:22.842Z,99442.22
2023-01-09T04:39:56.327Z,99433.75
2023-01-09T04:40:27.885Z,99436.81
2023-01-09T04:40:59.232Z,99432.19
2023-01-09T04:41:49.187Z,99434.91
2023-01-09T04:42:20.556Z,99434.50
2023-01-09T04:42:52.056Z,99431.41
2023-01-09T04:43:23.379Z,99439.91
2023-01-09T04:43:54.758Z,99438.38
2023-01-09T04:44:26.541Z,99441.78
2023-01-09T04:44:57.876Z,99441.44
2023-01-09T04:45:29.284Z,99441.44
2023-01-09T04:46:00.832Z,99441.44
2023-01-09T04:46:32.282Z,99439.50
2023-01-09T04:47:04.056Z,99435.25
2023-01-09T04:47:35.664Z,99436.81
2023-01-09T04:48:07.782Z,99440.28
2023-01-09T04:48:39.156Z,99434.88
2023-01-09T04:49:10.733Z,99439.50
2023-01-09T04:49:42.248Z,99438.31
2023-01-09T04:50:13.715Z,99439.13
2023-01-09T04:50:45.145Z,99439.13
2023-01-09T04:51:16.550Z,99436.03
2023-01-09T04:51:48.270Z,99433.34
2023-01-09T04:52:19.911Z,99438.38
2023-01-09T04:52:51.363Z,99434.53
2023-01-09T04:53:22.714Z,99441.47
2023-01-09T04:53:54.125Z,99439.56
2023-01-09T04:54:25.515Z,99434.53
2023-01-09T04:54:56.843Z,99432.97
2023-01-09T04:55:28.403Z,99438.38
2023-01-09T04:55:59.743Z,99439.16
2023-01-09T04:57:20.388Z,99437.22
2023-01-09T04:57:51.864Z,99436.09
2023-01-09T04:58:23.200Z,99435.31
2023-01-09T04:58:54.669Z,99432.59
2023-01-09T04:59:26.025Z,99435.72
2023-01-09T04:59:57.376Z,99430.69
2023-01-09T05:00:28.801Z,99429.13
2023-01-09T05:01:00.449Z,99431.06
2023-01-09T05:01:32.179Z,99424.50
2023-01-09T05:02:03.981Z,99425.66
2023-01-09T05:02:36.845Z,99432.19
2023-01-09T05:03:08.243Z,99440.69
2023-01-09T05:03:39.617Z,99433.38
2023-01-09T05:04:11.301Z,99434.16
2023-01-09T05:04:42.713Z,99431.47
2023-01-09T05:05:14.057Z,99431.47
2023-01-09T05:05:45.455Z,99427.63
2023-01-09T05:06:16.872Z,99424.91
2023-01-09T05:06:48.309Z,99429.94
2023-01-09T05:07:19.693Z,99435.34
2023-01-09T05:07:51.265Z,99431.50
2023-01-09T05:08:22.589Z,99433.41
2023-01-09T05:08:54.117Z,99435.75
2023-01-09T05:09:25.532Z,99425.31
2023-01-09T05:09:56.908Z,99429.16
2023-01-09T05:10:28.321Z,99431.91
2023-01-09T05:11:00.510Z,99433.06
2023-01-09T05:11:32.023Z,99425.34
2023-01-09T05:12:03.572Z,99424.59
2023-01-09T05:12:36.170Z,99421.88
2023-01-09T05:13:07.558Z,99425.34
2023-01-09T05:13:38.926Z,99419.59
2023-01-09T05:14:10.268Z,99423.44
2023-01-09T05:14:41.634Z,99427.69
2023-01-09T05:15:13.069Z,99419.19
2023-01-09T05:15:44.463Z,99426.53
2023-01-09T05:16:15.939Z,99423.44
2023-01-09T05:17:36.334Z,99421.56
2023-01-09T05:18:07.784Z,99427.31
2023-01-09T05:18:39.320Z,99422.69
2023-01-09T05:19:10.710Z,99422.69
2023-01-09T05:19:42.397Z,99421.91
2023-01-09T05:20:13.774Z,99419.59
2023-01-09T05:20:45.101Z,99424.25
2023-01-09T05:21:16.502Z,99422.69
2023-01-09T05:21:47.869Z,99420.41
2023-01-09T05:22:19.211Z,99416.94
2023-01-09T05:22:50.627Z,99422.31
2023-01-09T05:23:22.032Z,99415.38
2023-01-09T05:23:53.682Z,99428.50
2023-01-09T05:24:25.185Z,99416.16
2023-01-09T05:24:56.941Z,99418.84
2023-01-09T05:25:28.933Z,99418.06
2023-01-09T05:26:00.296Z,99418.44
2023-01-09T05:26:31.754Z,99421.56
2023-01-09T05:27:03.207Z,99420.78
2023-01-09T05:27:34.599Z,99424.25
2023-01-09T05:28:06.062Z,99420.41
2023-01-09T05:28:37.454Z,99416.94
2023-01-09T05:29:09.813Z,99416.56
2023-01-09T05:29:41.236Z,99413.09
2023-01-09T05:30:15.538Z,99414.22
2023-01-09T05:30:49.092Z,99413.84
2023-01-09T05:31:20.720Z,99418.88
2023-01-09T05:31:52.772Z,99416.94
2023-01-09T05:32:24.263Z,99416.19
2023-01-09T05:32:55.718Z,99412.31
2023-01-09T05:33:27.186Z,99414.22
2023-01-09T05:34:00.892Z,99407.69
2023-01-09T05:34:32.355Z,99412.31
2023-01-09T05:35:03.965Z,99416.19
2023-01-09T05:35:35.306Z,99406.91
2023-01-09T05:36:07.204Z,99404.97
2023-01-09T05:36:38.640Z,99406.13
2023-01-09T05:37:10.009Z,99398.81
2023-01-09T05:37:41.557Z,99401.91
2023-01-09T05:38:13.031Z,99407.31
2023-01-09T05:38:44.586Z,99406.13
2023-01-09T05:39:15.999Z,99406.91
2023-01-09T05:39:47.374Z,99412.72
2023-01-09T05:40:19.018Z,99403.44
2023-01-09T05:40:50.459Z,99412.72
2023-01-09T05:41:23.590Z,99410.38
2023-01-09T05:41:55.701Z,99395.72
2023-01-09T05:42:27.351Z,99404.97
2023-01-09T05:42:58.716Z,99403.84
2023-01-09T05:43:30.110Z,99401.13
2023-01-09T05:44:01.711Z,99398.44
2023-01-09T05:44:33.239Z,99403.06
2023-01-09T05:45:05.884Z,99396.88
2023-01-09T05:45:37.435Z,99407.31
2023-01-09T05:46:08.916Z,99400.00
2023-01-09T05:46:40.302Z,99401.91
2023-01-09T05:47:11.761Z,99395.72
2023-01-09T05:47:46.090Z,99398.44
2023-01-09T05:48:17.449Z,99398.44
2023-01-09T05:48:48.872Z,99404.63
2023-01-09T05:49:20.195Z,99397.66
2023-01-09T05:49:51.519Z,99406.53
2023-01-09T05:50:23.067Z,99401.13
2023-01-09T05:50:54.853Z,99408.09
2023-01-09T05:51:26.461Z,99404.63
2023-01-09T05:51:57.820Z,99403.06
2023-01-09T05:52:29.196Z,99405.38
2023-01-09T05:53:00.620Z,99405.38
2023-01-09T05:53:31.997Z,99401.13
2023-01-09T05:54:04.810Z,99400.00
2023-01-09T05:54:36.135Z,99398.44
2023-01-09T05:55:08.228Z,99398.06
2023-01-09T05:55:39.682Z,99400.00
2023-01-09T05:56:11.920Z,99398.84
2023-01-09T05:56:43.416Z,99407.72
2023-01-09T05:57:14.810Z,99404.25
2023-01-09T05:57:46.160Z,99400.00
2023-01-09T05:58:17.531Z,99405.03
2023-01-09T05:58:48.905Z,99402.69
2023-01-09T05:59:20.474Z,99398.06
2023-01-09T05:59:51.842Z,99400.41
2023-01-09T06:00:23.385Z,99395.00
2023-01-09T06:00:54.747Z,99390.75
2023-01-09T06:01:26.204Z,99396.53
2023-01-09T06:01:57.725Z,99396.94
2023-01-09T06:02:29.142Z,99391.91
2023-01-09T06:03:00.598Z,99395.03
2023-01-09T06:03:32.053Z,99395.81
2023-01-09T06:04:03.462Z,99399.66
2023-01-09T06:04:34.821Z,99388.47
2023-01-09T06:05:06.747Z,99386.53
2023-01-09T06:05:38.075Z,99396.56
2023-01-09T06:06:09.528Z,99394.66
2023-01-09T06:06:41.117Z,99393.88
2023-01-09T06:07:16.623Z,99401.59
2023-01-09T06:07:50.971Z,99398.91
2023-01-09T06:08:22.410Z,99397.75
2023-01-09T06:08:53.878Z,99389.63
2023-01-09T06:09:25.251Z,99389.63
2023-01-09T06:09:56.775Z,99390.03
2023-01-09T06:10:28.116Z,99401.59
2023-01-09T06:10:59.541Z,99395.44
2023-01-09T06:11:30.938Z,99398.53
2023-01-09T06:12:02.330Z,99396.56
2023-01-09T06:12:33.868Z,99397.00
2023-01-09T06:13:05.276Z,99395.06
2023-01-09T06:13:36.740Z,99400.09
2023-01-09T06:14:08.090Z,99400.88
2023-01-09T06:14:39.415Z,99392.75
2023-01-09T06:15:11.334Z,99395.47
2023-01-09T06:15:43.041Z,99394.72
2023-01-09T06:16:14.524Z,99397.03
2023-01-09T06:16:46.029Z,99392.41
2023-01-09T06:17:17.432Z,99384.66
2023-01-09T06:17:48.936Z,99383.09
2023-01-09T06:18:20.514Z,99386.22
2023-01-09T06:18:51.923Z,99388.91
2023-01-09T06:19:23.386Z,99390.47
2023-01-09T06:19:54.793Z,99387.00
2023-01-09T06:20:26.319Z,99387.75
2023-01-09T06:20:57.682Z,99381.59
2023-01-09T06:21:29.625Z,99381.59
2023-01-09T06:22:01.045Z,99392.41
2023-01-09T06:22:32.377Z,99387.75
2023-01-09T06:23:03.894Z,99383.09
2023-01-09T06:23:35.245Z,99394.72
2023-01-09T06:24:07.245Z,99390.47
2023-01-09T06:24:38.674Z,99387.75
2023-01-09T06:25:10.574Z,99389.31
2023-01-09T06:25:42.302Z,99392.03
2023-01-09T06:26:13.988Z,99385.47
2023-01-09T06:26:45.317Z,99383.13
2023-01-09T06:27:16.759Z,99384.28
2023-01-09T06:27:49.148Z,99386.25
2023-01-09T06:28:20.476Z,99385.47
2023-01-09T06:28:52.338Z,99391.66
2023-01-09T06:29:23.678Z,99383.53
2023-01-09T06:29:55.208Z,99387.78
2023-01-09T06:30:26.607Z,99382.38
2023-01-09T06:30:58.130Z,99376.59
2023-01-09T06:31:29.634Z,99382.41
2023-01-09T06:32:01.057Z,99386.63
2023-01-09T06:32:32.574Z,99383.13
2023-01-09T06:33:04.199Z,99386.63
2023-01-09T06:33:35.603Z,99384.69
2023-01-09T06:34:07.001Z,99386.25
2023-01-09T06:34:38.380Z,99382.78
2023-01-09T06:35:10.351Z,99384.72
2023-01-09T06:35:41.720Z,99383.19
2023-01-09T06:36:13.111Z,99386.66
2023-01-09T06:36:44.664Z,99383.56
2023-01-09T06:37:16.006Z,99380.88
2023-01-09T06:37:48.564Z,99382.44
2023-01-09T06:38:20.067Z,99392.09
2023-01-09T06:38:51.535Z,99382.44
2023-01-09T06:39:23.093Z,99384.75
2023-01-09T06:39:54.794Z,99382.44
2023-01-09T06:40:26.262Z,99384.75
2023-01-09T06:40:57.660Z,99384.75
2023-01-09T06:41:29.064Z,99379.34
2023-01-09T06:42:00.572Z,99376.66
2023-01-09T06:42:31.929Z,99378.56
2023-01-09T06:43:03.342Z,99371.63
2023-01-09T06:43:34.923Z,99368.16
2023-01-09T06:44:06.327Z,99380.91
2023-01-09T06:44:37.807Z,99364.66
2023-01-09T06:45:09.555Z,99377.84
2023-01-09T06:45:45.023Z,99380.16
2023-01-09T06:46:16.454Z,99368.91
2023-01-09T06:46:48.107Z,99377.47